sensor_id;sensor_type;location;lat;lon;timestamp;temperature;humidity
72114;SHT31;59989;46.220;19.888;2023-04-15T00:00:07;6.58;91.22
72114;SHT31;59989;46.220;19.888;2023-04-15T00:03:14;6.68;91.24
72114;SHT31;59989;46.220;19.888;2023-04-15T00:06:17;6.78;90.94
72114;SHT31;59989;46.220;19.888;2023-04-15T00:09:21;6.80;90.89
72114;SHT31;59989;46.220;19.888;2023-04-15T00:12:25;6.89;90.56
72114;SHT31;59989;46.220;19.888;2023-04-15T00:15:28;6.95;90.43
72114;SHT31;59989;46.220;19.888;2023-04-15T00:18:31;6.95;90.46
72114;SHT31;59989;46.220;19.888;2023-04-15T00:21:34;6.96;90.28
72114;SHT31;59989;46.220;19.888;2023-04-15T00:24:37;6.90;90.55
72114;SHT31;59989;46.220;19.888;2023-04-15T00:27:40;6.97;90.72
72114;SHT31;59989;46.220;19.888;2023-04-15T00:30:43;6.97;90.84
72114;SHT31;59989;46.220;19.888;2023-04-15T00:33:46;6.99;90.99
72114;SHT31;59989;46.220;19.888;2023-04-15T00:36:49;6.95;90.98
72114;SHT31;59989;46.220;19.888;2023-04-15T00:39:52;6.90;91.11
72114;SHT31;59989;46.220;19.888;2023-04-15T00:42:55;6.88;91.34
72114;SHT31;59989;46.220;19.888;2023-04-15T00:45:58;6.85;91.46
72114;SHT31;59989;46.220;19.888;2023-04-15T00:49:03;6.89;91.35
72114;SHT31;59989;46.220;19.888;2023-04-15T00:52:07;6.88;91.19
72114;SHT31;59989;46.220;19.888;2023-04-15T00:55:10;6.79;91.09
72114;SHT31;59989;46.220;19.888;2023-04-15T00:58:13;6.75;91.04
72114;SHT31;59989;46.220;19.888;2023-04-15T01:01:20;6.71;91.13
72114;SHT31;59989;46.220;19.888;2023-04-15T01:04:23;6.61;91.15
72114;SHT31;59989;46.220;19.888;2023-04-15T01:07:26;6.58;91.25
72114;SHT31;59989;46.220;19.888;2023-04-15T01:10:30;6.51;91.35
72114;SHT31;59989;46.220;19.888;2023-04-15T01:13:33;6.42;91.29
72114;SHT31;59989;46.220;19.888;2023-04-15T01:16:39;6.46;91.53
72114;SHT31;59989;46.220;19.888;2023-04-15T01:19:42;6.52;91.69
72114;SHT31;59989;46.220;19.888;2023-04-15T01:22:45;6.56;91.73
72114;SHT31;59989;46.220;19.888;2023-04-15T01:25:48;6.61;91.74
72114;SHT31;59989;46.220;19.888;2023-04-15T01:28:51;6.55;91.59
72114;SHT31;59989;46.220;19.888;2023-04-15T01:31:55;6.56;91.79
72114;SHT31;59989;46.220;19.888;2023-04-15T01:35:00;6.59;91.89
72114;SHT31;59989;46.220;19.888;2023-04-15T01:38:08;6.53;92.00
72114;SHT31;59989;46.220;19.888;2023-04-15T01:41:15;6.46;91.96
72114;SHT31;59989;46.220;19.888;2023-04-15T01:44:19;6.40;92.07
72114;SHT31;59989;46.220;19.888;2023-04-15T01:47:22;6.31;92.25
72114;SHT31;59989;46.220;19.888;2023-04-15T01:50:25;6.28;92.39
72114;SHT31;59989;46.220;19.888;2023-04-15T01:53:29;6.22;92.53
72114;SHT31;59989;46.220;19.888;2023-04-15T01:56:32;6.13;92.55
72114;SHT31;59989;46.220;19.888;2023-04-15T01:59:34;6.06;92.40
72114;SHT31;59989;46.220;19.888;2023-04-15T02:02:37;6.01;92.41
72114;SHT31;59989;46.220;19.888;2023-04-15T02:05:40;5.90;92.51
72114;SHT31;59989;46.220;19.888;2023-04-15T02:08:43;5.89;92.76
72114;SHT31;59989;46.220;19.888;2023-04-15T02:11:45;5.94;92.79
72114;SHT31;59989;46.220;19.888;2023-04-15T02:14:47;5.97;92.91
72114;SHT31;59989;46.220;19.888;2023-04-15T02:17:50;6.14;93.28
72114;SHT31;59989;46.220;19.888;2023-04-15T02:20:54;6.30;93.25
72114;SHT31;59989;46.220;19.888;2023-04-15T02:23:58;6.34;93.28
72114;SHT31;59989;46.220;19.888;2023-04-15T02:27:02;6.30;92.43
72114;SHT31;59989;46.220;19.888;2023-04-15T02:30:05;6.32;92.25
72114;SHT31;59989;46.220;19.888;2023-04-15T02:33:10;6.32;92.19
72114;SHT31;59989;46.220;19.888;2023-04-15T02:36:13;6.34;91.85
72114;SHT31;59989;46.220;19.888;2023-04-15T02:39:15;6.34;91.73
72114;SHT31;59989;46.220;19.888;2023-04-15T02:42:20;6.35;91.61
72114;SHT31;59989;46.220;19.888;2023-04-15T02:45:24;6.31;91.45
72114;SHT31;59989;46.220;19.888;2023-04-15T02:48:28;6.35;91.29
72114;SHT31;59989;46.220;19.888;2023-04-15T02:51:31;6.31;91.36
72114;SHT31;59989;46.220;19.888;2023-04-15T02:54:34;6.28;91.26
72114;SHT31;59989;46.220;19.888;2023-04-15T02:57:37;6.27;91.29
72114;SHT31;59989;46.220;19.888;2023-04-15T03:00:42;6.24;91.04
72114;SHT31;59989;46.220;19.888;2023-04-15T03:03:44;6.11;91.04
72114;SHT31;59989;46.220;19.888;2023-04-15T03:06:47;6.01;91.22
72114;SHT31;59989;46.220;19.888;2023-04-15T03:09:49;5.99;91.46
72114;SHT31;59989;46.220;19.888;2023-04-15T03:12:52;5.90;91.63
72114;SHT31;59989;46.220;19.888;2023-04-15T03:15:57;5.82;91.66
72114;SHT31;59989;46.220;19.888;2023-04-15T03:19:01;5.77;91.75
72114;SHT31;59989;46.220;19.888;2023-04-15T03:22:05;5.66;91.94
72114;SHT31;59989;46.220;19.888;2023-04-15T03:25:08;5.60;92.18
72114;SHT31;59989;46.220;19.888;2023-04-15T03:28:12;5.51;92.27
72114;SHT31;59989;46.220;19.888;2023-04-15T03:31:14;5.49;92.39
72114;SHT31;59989;46.220;19.888;2023-04-15T03:34:17;5.44;92.69
72114;SHT31;59989;46.220;19.888;2023-04-15T03:37:19;5.41;92.90
72114;SHT31;59989;46.220;19.888;2023-04-15T03:40:22;5.36;92.95
72114;SHT31;59989;46.220;19.888;2023-04-15T03:43:24;5.31;92.84
72114;SHT31;59989;46.220;19.888;2023-04-15T03:46:27;5.31;93.11
72114;SHT31;59989;46.220;19.888;2023-04-15T03:49:30;5.32;93.19
72114;SHT31;59989;46.220;19.888;2023-04-15T03:52:32;5.36;93.28
72114;SHT31;59989;46.220;19.888;2023-04-15T03:55:35;5.42;93.39
72114;SHT31;59989;46.220;19.888;2023-04-15T03:58:38;5.45;93.24
72114;SHT31;59989;46.220;19.888;2023-04-15T04:01:40;5.51;93.18
72114;SHT31;59989;46.220;19.888;2023-04-15T04:04:43;5.65;93.50
72114;SHT31;59989;46.220;19.888;2023-04-15T04:07:46;5.72;93.35
72114;SHT31;59989;46.220;19.888;2023-04-15T04:10:48;5.73;93.08
72114;SHT31;59989;46.220;19.888;2023-04-15T04:13:51;5.74;92.77
72114;SHT31;59989;46.220;19.888;2023-04-15T04:16:54;5.76;92.49
72114;SHT31;59989;46.220;19.888;2023-04-15T04:19:56;5.73;92.54
72114;SHT31;59989;46.220;19.888;2023-04-15T04:22:59;5.70;92.34
72114;SHT31;59989;46.220;19.888;2023-04-15T04:26:02;5.73;92.30
72114;SHT31;59989;46.220;19.888;2023-04-15T04:29:04;5.72;92.27
72114;SHT31;59989;46.220;19.888;2023-04-15T04:32:07;5.72;92.34
72114;SHT31;59989;46.220;19.888;2023-04-15T04:35:10;5.76;92.30
72114;SHT31;59989;46.220;19.888;2023-04-15T04:38:12;5.82;92.41
72114;SHT31;59989;46.220;19.888;2023-04-15T04:41:15;5.82;92.37
72114;SHT31;59989;46.220;19.888;2023-04-15T04:44:17;5.80;92.54
72114;SHT31;59989;46.220;19.888;2023-04-15T04:47:20;5.74;92.36
72114;SHT31;59989;46.220;19.888;2023-04-15T04:50:23;5.72;92.41
72114;SHT31;59989;46.220;19.888;2023-04-15T04:53:26;5.76;92.26
72114;SHT31;59989;46.220;19.888;2023-04-15T04:56:29;5.80;92.34
72114;SHT31;59989;46.220;19.888;2023-04-15T04:59:31;5.89;92.32
72114;SHT31;59989;46.220;19.888;2023-04-15T05:02:34;5.92;92.29
72114;SHT31;59989;46.220;19.888;2023-04-15T05:05:37;5.92;92.21
72114;SHT31;59989;46.220;19.888;2023-04-15T05:08:42;5.89;92.16
72114;SHT31;59989;46.220;19.888;2023-04-15T05:11:44;5.89;92.15
72114;SHT31;59989;46.220;19.888;2023-04-15T05:14:47;5.86;92.09
72114;SHT31;59989;46.220;19.888;2023-04-15T05:17:49;5.86;92.20
72114;SHT31;59989;46.220;19.888;2023-04-15T05:20:52;5.92;92.18
72114;SHT31;59989;46.220;19.888;2023-04-15T05:23:55;5.96;92.12
72114;SHT31;59989;46.220;19.888;2023-04-15T05:26:58;5.93;91.96
72114;SHT31;59989;46.220;19.888;2023-04-15T05:30:00;5.97;92.03
72114;SHT31;59989;46.220;19.888;2023-04-15T05:33:04;5.99;91.98
72114;SHT31;59989;46.220;19.888;2023-04-15T05:36:07;6.03;91.96
72114;SHT31;59989;46.220;19.888;2023-04-15T05:39:09;6.10;91.76
72114;SHT31;59989;46.220;19.888;2023-04-15T05:42:12;6.30;91.51
72114;SHT31;59989;46.220;19.888;2023-04-15T05:45:14;6.44;91.04
72114;SHT31;59989;46.220;19.888;2023-04-15T05:48:17;6.73;90.56
72114;SHT31;59989;46.220;19.888;2023-04-15T05:51:20;6.92;89.93
72114;SHT31;59989;46.220;19.888;2023-04-15T05:54:22;7.20;89.71
72114;SHT31;59989;46.220;19.888;2023-04-15T05:57:25;7.58;89.02
72114;SHT31;59989;46.220;19.888;2023-04-15T06:00:28;8.09;88.53
72114;SHT31;59989;46.220;19.888;2023-04-15T06:03:30;8.48;87.32
72114;SHT31;59989;46.220;19.888;2023-04-15T06:06:33;8.43;87.12
72114;SHT31;59989;46.220;19.888;2023-04-15T06:09:36;8.81;86.81
72114;SHT31;59989;46.220;19.888;2023-04-15T06:12:39;9.19;86.69
72114;SHT31;59989;46.220;19.888;2023-04-15T06:15:41;9.32;84.83
72114;SHT31;59989;46.220;19.888;2023-04-15T06:18:44;9.50;84.33
72114;SHT31;59989;46.220;19.888;2023-04-15T06:21:47;9.58;84.04
72114;SHT31;59989;46.220;19.888;2023-04-15T06:24:49;9.71;83.72
72114;SHT31;59989;46.220;19.888;2023-04-15T06:27:53;10.01;83.44
72114;SHT31;59989;46.220;19.888;2023-04-15T06:30:55;10.21;82.13
72114;SHT31;59989;46.220;19.888;2023-04-15T06:33:58;10.31;82.34
72114;SHT31;59989;46.220;19.888;2023-04-15T06:37:00;10.56;81.41
72114;SHT31;59989;46.220;19.888;2023-04-15T06:40:05;10.71;81.27
72114;SHT31;59989;46.220;19.888;2023-04-15T06:43:07;10.53;80.78
72114;SHT31;59989;46.220;19.888;2023-04-15T06:46:10;10.76;80.18
72114;SHT31;59989;46.220;19.888;2023-04-15T06:49:12;10.84;80.19
72114;SHT31;59989;46.220;19.888;2023-04-15T06:52:15;10.83;79.78
72114;SHT31;59989;46.220;19.888;2023-04-15T06:55:17;11.04;79.41
72114;SHT31;59989;46.220;19.888;2023-04-15T06:58:21;11.45;78.75
72114;SHT31;59989;46.220;19.888;2023-04-15T07:01:23;11.85;77.52
72114;SHT31;59989;46.220;19.888;2023-04-15T07:04:26;11.75;77.58
72114;SHT31;59989;46.220;19.888;2023-04-15T07:07:29;12.10;76.60
72114;SHT31;59989;46.220;19.888;2023-04-15T07:10:35;12.18;77.58
72114;SHT31;59989;46.220;19.888;2023-04-15T07:13:38;12.68;74.67
72114;SHT31;59989;46.220;19.888;2023-04-15T07:16:40;12.95;73.16
72114;SHT31;59989;46.220;19.888;2023-04-15T07:19:43;13.16;73.23
72114;SHT31;59989;46.220;19.888;2023-04-15T07:22:46;12.92;72.77
72114;SHT31;59989;46.220;19.888;2023-04-15T07:25:49;12.45;71.28
72114;SHT31;59989;46.220;19.888;2023-04-15T07:28:53;12.54;71.43
72114;SHT31;59989;46.220;19.888;2023-04-15T07:31:56;12.54;72.74
72114;SHT31;59989;46.220;19.888;2023-04-15T07:34:59;12.65;70.21
72114;SHT31;59989;46.220;19.888;2023-04-15T07:38:02;12.91;69.13
72114;SHT31;59989;46.220;19.888;2023-04-15T07:41:05;12.86;69.29
72114;SHT31;59989;46.220;19.888;2023-04-15T07:44:07;12.75;67.53
72114;SHT31;59989;46.220;19.888;2023-04-15T07:47:10;12.96;67.62
72114;SHT31;59989;46.220;19.888;2023-04-15T07:50:13;13.30;67.87
72114;SHT31;59989;46.220;19.888;2023-04-15T07:53:16;13.16;66.59
72114;SHT31;59989;46.220;19.888;2023-04-15T07:56:19;13.16;67.24
72114;SHT31;59989;46.220;19.888;2023-04-15T07:59:22;13.34;67.40
72114;SHT31;59989;46.220;19.888;2023-04-15T08:02:25;13.21;68.55
72114;SHT31;59989;46.220;19.888;2023-04-15T08:05:28;13.44;66.67
72114;SHT31;59989;46.220;19.888;2023-04-15T08:08:30;13.00;66.08
72114;SHT31;59989;46.220;19.888;2023-04-15T08:11:33;13.09;67.18
72114;SHT31;59989;46.220;19.888;2023-04-15T08:14:36;12.86;66.78
72114;SHT31;59989;46.220;19.888;2023-04-15T08:17:38;12.99;67.70
72114;SHT31;59989;46.220;19.888;2023-04-15T08:20:41;13.13;66.31
72114;SHT31;59989;46.220;19.888;2023-04-15T08:23:45;13.94;65.17
72114;SHT31;59989;46.220;19.888;2023-04-15T08:26:47;13.92;64.33
72114;SHT31;59989;46.220;19.888;2023-04-15T08:29:50;13.75;62.53
72114;SHT31;59989;46.220;19.888;2023-04-15T08:32:53;14.02;61.47
72114;SHT31;59989;46.220;19.888;2023-04-15T08:35:55;14.06;61.71
72114;SHT31;59989;46.220;19.888;2023-04-15T08:38:59;14.43;62.38
72114;SHT31;59989;46.220;19.888;2023-04-15T08:42:10;14.04;62.82
72114;SHT31;59989;46.220;19.888;2023-04-15T08:45:15;14.25;62.21
72114;SHT31;59989;46.220;19.888;2023-04-15T08:48:19;14.56;60.20
72114;SHT31;59989;46.220;19.888;2023-04-15T08:51:22;14.43;61.55
72114;SHT31;59989;46.220;19.888;2023-04-15T08:54:26;15.15;59.04
72114;SHT31;59989;46.220;19.888;2023-04-15T08:57:30;15.46;57.90
72114;SHT31;59989;46.220;19.888;2023-04-15T09:00:32;15.96;54.98
72114;SHT31;59989;46.220;19.888;2023-04-15T09:03:35;15.91;54.31
72114;SHT31;59989;46.220;19.888;2023-04-15T09:06:39;15.97;54.25
72114;SHT31;59989;46.220;19.888;2023-04-15T09:09:42;15.18;55.31
72114;SHT31;59989;46.220;19.888;2023-04-15T09:12:44;14.99;56.54
72114;SHT31;59989;46.220;19.888;2023-04-15T09:15:47;14.76;55.77
72114;SHT31;59989;46.220;19.888;2023-04-15T09:18:50;15.21;55.27
72114;SHT31;59989;46.220;19.888;2023-04-15T09:21:54;15.14;54.15
72114;SHT31;59989;46.220;19.888;2023-04-15T09:25:00;15.67;54.51
72114;SHT31;59989;46.220;19.888;2023-04-15T09:28:03;14.76;54.28
72114;SHT31;59989;46.220;19.888;2023-04-15T09:31:06;14.84;55.64
72114;SHT31;59989;46.220;19.888;2023-04-15T09:34:09;14.87;56.25
72114;SHT31;59989;46.220;19.888;2023-04-15T09:37:11;14.84;55.58
72114;SHT31;59989;46.220;19.888;2023-04-15T09:40:40;15.45;55.15
72114;SHT31;59989;46.220;19.888;2023-04-15T09:43:43;15.36;55.49
72114;SHT31;59989;46.220;19.888;2023-04-15T09:46:45;14.73;55.30
72114;SHT31;59989;46.220;19.888;2023-04-15T09:49:54;15.50;53.72
72114;SHT31;59989;46.220;19.888;2023-04-15T09:52:58;14.99;54.64
72114;SHT31;59989;46.220;19.888;2023-04-15T09:56:01;15.53;52.64
72114;SHT31;59989;46.220;19.888;2023-04-15T09:59:04;15.80;50.43
72114;SHT31;59989;46.220;19.888;2023-04-15T10:02:07;15.36;52.65
72114;SHT31;59989;46.220;19.888;2023-04-15T10:05:13;15.19;52.27
72114;SHT31;59989;46.220;19.888;2023-04-15T10:08:17;14.92;54.50
72114;SHT31;59989;46.220;19.888;2023-04-15T10:11:21;14.91;55.69
72114;SHT31;59989;46.220;19.888;2023-04-15T10:14:27;14.77;56.26
72114;SHT31;59989;46.220;19.888;2023-04-15T10:17:32;15.06;52.92
72114;SHT31;59989;46.220;19.888;2023-04-15T10:20:37;15.11;54.40
72114;SHT31;59989;46.220;19.888;2023-04-15T10:23:40;15.25;53.87
72114;SHT31;59989;46.220;19.888;2023-04-15T10:26:43;15.29;53.62
72114;SHT31;59989;46.220;19.888;2023-04-15T10:29:50;16.24;52.42
72114;SHT31;59989;46.220;19.888;2023-04-15T10:32:53;16.70;52.83
72114;SHT31;59989;46.220;19.888;2023-04-15T10:35:56;16.81;51.51
72114;SHT31;59989;46.220;19.888;2023-04-15T10:38:59;17.49;50.29
72114;SHT31;59989;46.220;19.888;2023-04-15T10:45:15;18.12;45.20
72114;SHT31;59989;46.220;19.888;2023-04-15T10:48:19;17.06;46.99
72114;SHT31;59989;46.220;19.888;2023-04-15T10:51:27;18.50;44.26
72114;SHT31;59989;46.220;19.888;2023-04-15T10:54:31;18.82;44.14
72114;SHT31;59989;46.220;19.888;2023-04-15T10:57:37;17.92;45.10
72114;SHT31;59989;46.220;19.888;2023-04-15T11:00:49;19.88;44.02
72114;SHT31;59989;46.220;19.888;2023-04-15T11:04:00;18.58;45.91
72114;SHT31;59989;46.220;19.888;2023-04-15T11:07:06;16.90;48.76
72114;SHT31;59989;46.220;19.888;2023-04-15T11:13:27;16.53;49.31
72114;SHT31;59989;46.220;19.888;2023-04-15T11:16:30;16.55;50.27
72114;SHT31;59989;46.220;19.888;2023-04-15T11:19:37;16.44;51.60
72114;SHT31;59989;46.220;19.888;2023-04-15T11:22:49;15.87;50.75
72114;SHT31;59989;46.220;19.888;2023-04-15T11:25:54;16.36;51.83
72114;SHT31;59989;46.220;19.888;2023-04-15T11:28:56;16.47;51.34
72114;SHT31;59989;46.220;19.888;2023-04-15T11:32:04;18.29;45.92
72114;SHT31;59989;46.220;19.888;2023-04-15T11:35:08;19.01;43.63
72114;SHT31;59989;46.220;19.888;2023-04-15T11:38:11;18.40;46.14
72114;SHT31;59989;46.220;19.888;2023-04-15T11:41:19;17.55;46.07
72114;SHT31;59989;46.220;19.888;2023-04-15T11:44:22;16.62;49.53
72114;SHT31;59989;46.220;19.888;2023-04-15T11:47:24;16.20;50.74
72114;SHT31;59989;46.220;19.888;2023-04-15T11:50:27;16.38;52.16
72114;SHT31;59989;46.220;19.888;2023-04-15T11:53:49;15.89;52.76
72114;SHT31;59989;46.220;19.888;2023-04-15T11:56:52;16.08;52.86
72114;SHT31;59989;46.220;19.888;2023-04-15T11:59:57;16.32;53.19
72114;SHT31;59989;46.220;19.888;2023-04-15T12:03:16;16.15;53.46
72114;SHT31;59989;46.220;19.888;2023-04-15T12:06:22;16.11;51.68
72114;SHT31;59989;46.220;19.888;2023-04-15T12:09:24;16.14;50.68
72114;SHT31;59989;46.220;19.888;2023-04-15T12:12:27;19.01;45.66
72114;SHT31;59989;46.220;19.888;2023-04-15T12:15:30;19.13;46.32
72114;SHT31;59989;46.220;19.888;2023-04-15T12:18:32;21.89;42.04
72114;SHT31;59989;46.220;19.888;2023-04-15T12:21:37;18.24;46.10
72114;SHT31;59989;46.220;19.888;2023-04-15T12:24:41;16.86;48.98
72114;SHT31;59989;46.220;19.888;2023-04-15T12:27:50;17.06;51.04
72114;SHT31;59989;46.220;19.888;2023-04-15T12:30:53;18.00;49.21
72114;SHT31;59989;46.220;19.888;2023-04-15T12:33:59;17.45;50.44
72114;SHT31;59989;46.220;19.888;2023-04-15T12:37:04;16.52;50.51
72114;SHT31;59989;46.220;19.888;2023-04-15T12:40:07;16.73;51.62
72114;SHT31;59989;46.220;19.888;2023-04-15T12:43:10;16.48;51.95
72114;SHT31;59989;46.220;19.888;2023-04-15T12:46:13;16.86;51.21
72114;SHT31;59989;46.220;19.888;2023-04-15T12:49:17;18.95;44.17
72114;SHT31;59989;46.220;19.888;2023-04-15T12:52:22;22.10;41.50
72114;SHT31;59989;46.220;19.888;2023-04-15T12:55:26;21.65;42.03
72114;SHT31;59989;46.220;19.888;2023-04-15T12:58:28;21.01;40.63
72114;SHT31;59989;46.220;19.888;2023-04-15T13:01:31;21.66;39.43
72114;SHT31;59989;46.220;19.888;2023-04-15T13:04:33;19.67;45.12
72114;SHT31;59989;46.220;19.888;2023-04-15T13:07:36;17.30;48.52
72114;SHT31;59989;46.220;19.888;2023-04-15T13:10:39;17.13;49.45
72114;SHT31;59989;46.220;19.888;2023-04-15T13:13:43;16.31;50.52
72114;SHT31;59989;46.220;19.888;2023-04-15T13:16:46;16.44;51.45
72114;SHT31;59989;46.220;19.888;2023-04-15T13:19:49;16.21;52.30
72114;SHT31;59989;46.220;19.888;2023-04-15T13:22:52;16.35;52.47
72114;SHT31;59989;46.220;19.888;2023-04-15T13:25:55;16.22;53.04
72114;SHT31;59989;46.220;19.888;2023-04-15T13:28:58;15.94;54.04
72114;SHT31;59989;46.220;19.888;2023-04-15T13:32:01;15.71;53.57
72114;SHT31;59989;46.220;19.888;2023-04-15T13:35:04;15.74;52.20
72114;SHT31;59989;46.220;19.888;2023-04-15T13:38:07;15.40;53.88
72114;SHT31;59989;46.220;19.888;2023-04-15T13:41:09;15.42;53.99
72114;SHT31;59989;46.220;19.888;2023-04-15T13:44:12;15.18;56.06
72114;SHT31;59989;46.220;19.888;2023-04-15T13:47:16;15.31;55.81
72114;SHT31;59989;46.220;19.888;2023-04-15T13:50:18;15.36;54.83
72114;SHT31;59989;46.220;19.888;2023-04-15T13:53:21;15.14;56.45
72114;SHT31;59989;46.220;19.888;2023-04-15T13:56:39;15.08;57.13
72114;SHT31;59989;46.220;19.888;2023-04-15T13:59:42;14.87;56.43
72114;SHT31;59989;46.220;19.888;2023-04-15T14:02:45;14.92;57.95
72114;SHT31;59989;46.220;19.888;2023-04-15T14:05:48;14.64;57.03
72114;SHT31;59989;46.220;19.888;2023-04-15T14:08:57;14.83;57.52
72114;SHT31;59989;46.220;19.888;2023-04-15T14:12:00;14.68;57.45
72114;SHT31;59989;46.220;19.888;2023-04-15T14:15:03;14.88;57.51
72114;SHT31;59989;46.220;19.888;2023-04-15T14:18:06;14.71;57.36
72114;SHT31;59989;46.220;19.888;2023-04-15T14:21:09;14.92;59.14
72114;SHT31;59989;46.220;19.888;2023-04-15T14:24:12;15.08;58.54
72114;SHT31;59989;46.220;19.888;2023-04-15T14:27:14;14.74;57.58
72114;SHT31;59989;46.220;19.888;2023-04-15T14:30:17;14.74;57.13
72114;SHT31;59989;46.220;19.888;2023-04-15T14:33:20;14.94;57.90
72114;SHT31;59989;46.220;19.888;2023-04-15T14:36:23;15.34;56.65
72114;SHT31;59989;46.220;19.888;2023-04-15T14:39:25;15.77;56.70
72114;SHT31;59989;46.220;19.888;2023-04-15T14:42:28;16.10;55.60
72114;SHT31;59989;46.220;19.888;2023-04-15T14:45:31;16.29;55.95
72114;SHT31;59989;46.220;19.888;2023-04-15T14:48:33;16.48;54.18
72114;SHT31;59989;46.220;19.888;2023-04-15T14:51:36;16.59;53.50
72114;SHT31;59989;46.220;19.888;2023-04-15T14:54:41;15.70;54.02
72114;SHT31;59989;46.220;19.888;2023-04-15T14:57:43;16.01;53.33
72114;SHT31;59989;46.220;19.888;2023-04-15T15:00:46;15.91;52.97
72114;SHT31;59989;46.220;19.888;2023-04-15T15:03:49;15.87;53.14
72114;SHT31;59989;46.220;19.888;2023-04-15T15:06:52;15.47;57.18
72114;SHT31;59989;46.220;19.888;2023-04-15T15:09:54;15.38;55.69
72114;SHT31;59989;46.220;19.888;2023-04-15T15:12:58;15.39;56.80
72114;SHT31;59989;46.220;19.888;2023-04-15T15:16:01;15.28;55.89
72114;SHT31;59989;46.220;19.888;2023-04-15T15:19:04;15.18;55.09
72114;SHT31;59989;46.220;19.888;2023-04-15T15:22:07;15.28;56.38
72114;SHT31;59989;46.220;19.888;2023-04-15T15:25:10;15.15;54.88
72114;SHT31;59989;46.220;19.888;2023-04-15T15:28:12;15.32;55.29
72114;SHT31;59989;46.220;19.888;2023-04-15T15:31:15;15.57;55.51
72114;SHT31;59989;46.220;19.888;2023-04-15T15:34:18;15.34;54.55
72114;SHT31;59989;46.220;19.888;2023-04-15T15:37:20;15.05;56.04
72114;SHT31;59989;46.220;19.888;2023-04-15T15:40:23;15.14;55.05
72114;SHT31;59989;46.220;19.888;2023-04-15T15:43:25;15.21;55.95
72114;SHT31;59989;46.220;19.888;2023-04-15T15:46:28;15.16;55.49
72114;SHT31;59989;46.220;19.888;2023-04-15T15:49:32;15.02;55.30
72114;SHT31;59989;46.220;19.888;2023-04-15T15:52:36;14.97;56.53
72114;SHT31;59989;46.220;19.888;2023-04-15T15:55:38;14.81;57.07
72114;SHT31;59989;46.220;19.888;2023-04-15T15:58:48;14.64;58.80
72114;SHT31;59989;46.220;19.888;2023-04-15T16:01:51;14.71;56.88
72114;SHT31;59989;46.220;19.888;2023-04-15T16:04:54;14.73;57.45
72114;SHT31;59989;46.220;19.888;2023-04-15T16:07:56;14.57;58.02
72114;SHT31;59989;46.220;19.888;2023-04-15T16:10:59;14.47;58.25
72114;SHT31;59989;46.220;19.888;2023-04-15T16:14:02;14.36;58.82
72114;SHT31;59989;46.220;19.888;2023-04-15T16:17:05;14.25;58.61
72114;SHT31;59989;46.220;19.888;2023-04-15T16:20:08;14.30;59.68
72114;SHT31;59989;46.220;19.888;2023-04-15T16:23:12;14.23;61.39
72114;SHT31;59989;46.220;19.888;2023-04-15T16:26:15;14.12;61.41
72114;SHT31;59989;46.220;19.888;2023-04-15T16:29:18;14.08;59.30
72114;SHT31;59989;46.220;19.888;2023-04-15T16:32:21;13.99;62.71
72114;SHT31;59989;46.220;19.888;2023-04-15T16:35:23;13.89;61.51
72114;SHT31;59989;46.220;19.888;2023-04-15T16:38:27;13.82;60.91
72114;SHT31;59989;46.220;19.888;2023-04-15T16:41:29;13.78;61.89
72114;SHT31;59989;46.220;19.888;2023-04-15T16:44:35;13.75;63.65
72114;SHT31;59989;46.220;19.888;2023-04-15T16:47:38;13.61;62.02
72114;SHT31;59989;46.220;19.888;2023-04-15T16:50:40;13.54;62.98
72114;SHT31;59989;46.220;19.888;2023-04-15T16:53:43;13.44;64.40
72114;SHT31;59989;46.220;19.888;2023-04-15T16:56:46;13.37;63.68
72114;SHT31;59989;46.220;19.888;2023-04-15T16:59:48;13.36;62.84
72114;SHT31;59989;46.220;19.888;2023-04-15T17:02:51;13.27;66.95
72114;SHT31;59989;46.220;19.888;2023-04-15T17:05:54;13.14;66.07
72114;SHT31;59989;46.220;19.888;2023-04-15T17:08:57;13.03;66.75
72114;SHT31;59989;46.220;19.888;2023-04-15T17:11:59;12.89;68.36
72114;SHT31;59989;46.220;19.888;2023-04-15T17:15:03;12.76;68.35
72114;SHT31;59989;46.220;19.888;2023-04-15T17:18:05;12.62;69.34
72114;SHT31;59989;46.220;19.888;2023-04-15T17:21:10;12.55;69.08
72114;SHT31;59989;46.220;19.888;2023-04-15T17:24:12;12.44;69.27
72114;SHT31;59989;46.220;19.888;2023-04-15T17:27:15;12.38;69.73
72114;SHT31;59989;46.220;19.888;2023-04-15T17:30:18;12.24;70.56
72114;SHT31;59989;46.220;19.888;2023-04-15T17:33:20;12.25;69.52
72114;SHT31;59989;46.220;19.888;2023-04-15T17:36:44;12.18;71.16
72114;SHT31;59989;46.220;19.888;2023-04-15T17:39:46;12.08;71.11
72114;SHT31;59989;46.220;19.888;2023-04-15T17:42:49;11.94;71.13
72114;SHT31;59989;46.220;19.888;2023-04-15T17:45:52;11.82;72.88
72114;SHT31;59989;46.220;19.888;2023-04-15T17:48:54;11.80;73.00
72114;SHT31;59989;46.220;19.888;2023-04-15T17:51:57;11.66;72.79
72114;SHT31;59989;46.220;19.888;2023-04-15T17:55:00;11.55;73.24
72114;SHT31;59989;46.220;19.888;2023-04-15T17:58:03;11.49;73.37
72114;SHT31;59989;46.220;19.888;2023-04-15T18:01:06;11.38;74.22
72114;SHT31;59989;46.220;19.888;2023-04-15T18:04:10;11.34;74.51
72114;SHT31;59989;46.220;19.888;2023-04-15T18:07:14;11.27;74.43
72114;SHT31;59989;46.220;19.888;2023-04-15T18:10:17;11.18;74.84
72114;SHT31;59989;46.220;19.888;2023-04-15T18:13:19;11.14;75.65
72114;SHT31;59989;46.220;19.888;2023-04-15T18:16:22;11.06;75.32
72114;SHT31;59989;46.220;19.888;2023-04-15T18:19:25;11.07;75.59
72114;SHT31;59989;46.220;19.888;2023-04-15T18:22:28;11.06;75.34
72114;SHT31;59989;46.220;19.888;2023-04-15T18:25:31;11.00;76.05
72114;SHT31;59989;46.220;19.888;2023-04-15T18:28:35;10.91;75.12
72114;SHT31;59989;46.220;19.888;2023-04-15T18:31:40;10.80;75.14
72114;SHT31;59989;46.220;19.888;2023-04-15T18:34:43;10.69;75.55
72114;SHT31;59989;46.220;19.888;2023-04-15T18:37:45;10.70;76.13
72114;SHT31;59989;46.220;19.888;2023-04-15T18:40:48;10.73;76.35
72114;SHT31;59989;46.220;19.888;2023-04-15T18:43:51;10.71;75.63
72114;SHT31;59989;46.220;19.888;2023-04-15T18:46:54;10.74;75.03
72114;SHT31;59989;46.220;19.888;2023-04-15T18:49:57;10.76;74.75
72114;SHT31;59989;46.220;19.888;2023-04-15T18:53:00;10.74;74.64
72114;SHT31;59989;46.220;19.888;2023-04-15T18:56:02;10.67;75.35
72114;SHT31;59989;46.220;19.888;2023-04-15T18:59:05;10.57;74.89
72114;SHT31;59989;46.220;19.888;2023-04-15T19:02:29;10.43;75.96
72114;SHT31;59989;46.220;19.888;2023-04-15T19:05:34;10.21;76.60
72114;SHT31;59989;46.220;19.888;2023-04-15T19:08:37;10.22;76.29
72114;SHT31;59989;46.220;19.888;2023-04-15T19:11:40;10.39;75.22